Terminal Aerodrome Forecast
Issued by NWS Albany, NY

Home | Current Version | Previous Version | Text Only | Print | Product List | Glossary On
Versions: 1 2 3 4 5 6 7 8 9 10 11 12 13 14 15 16 17 18
000
FTUS41 KALY 300541
TAFGFL
TAF
KGFL 300541Z 3006/3106 19006KT P6SM BKN150
     FM300900 21009KT P6SM VCSH SCT025 OVC040
      TEMPO 3009/3012 3SM -SHSN OVC025
     FM301400 23010G15KT P6SM VCSH OVC035
     FM301800 25014G22KT P6SM VCSH BKN050
     FM310000 25008G14KT P6SM BKN050=

USA.gov is the U.S. government's official web portal to all federal, state and local government web resources and services.